sensor_id;sensor_type;location;lat;lon;timestamp;P1;durP1;ratioP1;P2;durP2;ratioP2
6985;SDS011;3533;51.246;6.850;2022-12-18T00:01:31;4.10;;;3.90;;
6985;SDS011;3533;51.246;6.850;2022-12-18T00:03:58;3.63;;;3.43;;
6985;SDS011;3533;51.246;6.850;2022-12-18T00:06:26;4.17;;;3.87;;
6985;SDS011;3533;51.246;6.850;2022-12-18T00:08:53;3.60;;;3.40;;
6985;SDS011;3533;51.246;6.850;2022-12-18T00:11:21;3.80;;;3.57;;
6985;SDS011;3533;51.246;6.850;2022-12-18T00:13:48;3.90;;;3.70;;
6985;SDS011;3533;51.246;6.850;2022-12-18T00:16:18;4.13;;;3.83;;
6985;SDS011;3533;51.246;6.850;2022-12-18T00:18:45;4.20;;;3.90;;
6985;SDS011;3533;51.246;6.850;2022-12-18T00:21:12;3.73;;;3.50;;
6985;SDS011;3533;51.246;6.850;2022-12-18T00:23:39;4.07;;;3.83;;
6985;SDS011;3533;51.246;6.850;2022-12-18T00:26:06;2.97;;;2.80;;
6985;SDS011;3533;51.246;6.850;2022-12-18T00:28:35;3.77;;;3.57;;
6985;SDS011;3533;51.246;6.850;2022-12-18T00:31:05;3.90;;;3.70;;
6985;SDS011;3533;51.246;6.850;2022-12-18T00:33:32;3.80;;;3.60;;
6985;SDS011;3533;51.246;6.850;2022-12-18T00:36:01;4.10;;;3.80;;
6985;SDS011;3533;51.246;6.850;2022-12-18T00:38:31;3.10;;;2.90;;
6985;SDS011;3533;51.246;6.850;2022-12-18T00:40:57;3.33;;;3.13;;
6985;SDS011;3533;51.246;6.850;2022-12-18T00:43:23;3.83;;;3.63;;
6985;SDS011;3533;51.246;6.850;2022-12-18T00:45:48;3.90;;;3.70;;
6985;SDS011;3533;51.246;6.850;2022-12-18T00:48:14;3.20;;;3.00;;
6985;SDS011;3533;51.246;6.850;2022-12-18T00:50:39;3.80;;;3.50;;
6985;SDS011;3533;51.246;6.850;2022-12-18T00:53:05;3.70;;;3.50;;
6985;SDS011;3533;51.246;6.850;2022-12-18T00:55:30;4.40;;;4.00;;
6985;SDS011;3533;51.246;6.850;2022-12-18T00:57:56;3.90;;;3.70;;
6985;SDS011;3533;51.246;6.850;2022-12-18T01:00:21;3.77;;;3.47;;
6985;SDS011;3533;51.246;6.850;2022-12-18T01:02:47;3.87;;;3.67;;
6985;SDS011;3533;51.246;6.850;2022-12-18T01:05:13;3.33;;;3.13;;
6985;SDS011;3533;51.246;6.850;2022-12-18T01:07:39;3.70;;;3.50;;
6985;SDS011;3533;51.246;6.850;2022-12-18T01:10:05;3.40;;;3.20;;
6985;SDS011;3533;51.246;6.850;2022-12-18T01:12:31;3.40;;;3.20;;
6985;SDS011;3533;51.246;6.850;2022-12-18T01:14:57;3.63;;;3.43;;
6985;SDS011;3533;51.246;6.850;2022-12-18T01:17:22;3.40;;;3.20;;
6985;SDS011;3533;51.246;6.850;2022-12-18T01:19:48;3.30;;;3.10;;
6985;SDS011;3533;51.246;6.850;2022-12-18T01:22:14;3.53;;;3.33;;
6985;SDS011;3533;51.246;6.850;2022-12-18T01:24:39;3.50;;;3.30;;
6985;SDS011;3533;51.246;6.850;2022-12-18T01:27:05;3.23;;;3.03;;
6985;SDS011;3533;51.246;6.850;2022-12-18T01:29:31;3.30;;;3.10;;
6985;SDS011;3533;51.246;6.850;2022-12-18T01:31:56;3.37;;;3.17;;
6985;SDS011;3533;51.246;6.850;2022-12-18T01:34:22;3.87;;;3.60;;
6985;SDS011;3533;51.246;6.850;2022-12-18T01:36:48;3.40;;;3.20;;
6985;SDS011;3533;51.246;6.850;2022-12-18T01:39:17;3.73;;;3.50;;
6985;SDS011;3533;51.246;6.850;2022-12-18T01:41:43;3.57;;;3.37;;
6985;SDS011;3533;51.246;6.850;2022-12-18T01:47:25;3.77;;;3.57;;
6985;SDS011;3533;51.246;6.850;2022-12-18T01:49:57;3.10;;;2.90;;
6985;SDS011;3533;51.246;6.850;2022-12-18T01:52:26;3.20;;;3.00;;
6985;SDS011;3533;51.246;6.850;2022-12-18T01:54:54;3.83;;;3.53;;
6985;SDS011;3533;51.246;6.850;2022-12-18T01:57:21;3.20;;;3.00;;
6985;SDS011;3533;51.246;6.850;2022-12-18T01:59:49;3.10;;;2.90;;
6985;SDS011;3533;51.246;6.850;2022-12-18T02:02:17;3.53;;;3.33;;
6985;SDS011;3533;51.246;6.850;2022-12-18T02:04:44;3.30;;;3.10;;
6985;SDS011;3533;51.246;6.850;2022-12-18T02:07:17;3.00;;;2.80;;
6985;SDS011;3533;51.246;6.850;2022-12-18T02:12:46;3.20;;;3.00;;
6985;SDS011;3533;51.246;6.850;2022-12-18T02:15:27;2.90;;;2.70;;
6985;SDS011;3533;51.246;6.850;2022-12-18T02:18:05;2.80;;;2.70;;
6985;SDS011;3533;51.246;6.850;2022-12-18T02:20:46;3.13;;;2.93;;
6985;SDS011;3533;51.246;6.850;2022-12-18T02:23:22;3.33;;;3.13;;
6985;SDS011;3533;51.246;6.850;2022-12-18T02:28:36;3.20;;;3.00;;
6985;SDS011;3533;51.246;6.850;2022-12-18T02:31:09;2.93;;;2.73;;
6985;SDS011;3533;51.246;6.850;2022-12-18T02:33:39;2.97;;;2.77;;
6985;SDS011;3533;51.246;6.850;2022-12-18T02:36:07;3.13;;;2.93;;
6985;SDS011;3533;51.246;6.850;2022-12-18T02:38:34;3.23;;;3.03;;
6985;SDS011;3533;51.246;6.850;2022-12-18T02:41:01;3.03;;;2.87;;
6985;SDS011;3533;51.246;6.850;2022-12-18T02:43:28;3.50;;;3.20;;
6985;SDS011;3533;51.246;6.850;2022-12-18T02:45:58;2.90;;;2.70;;
6985;SDS011;3533;51.246;6.850;2022-12-18T02:48:34;3.73;;;3.53;;
6985;SDS011;3533;51.246;6.850;2022-12-18T02:51:35;3.53;;;3.33;;
6985;SDS011;3533;51.246;6.850;2022-12-18T02:53:58;3.37;;;3.17;;
6985;SDS011;3533;51.246;6.850;2022-12-18T02:56:43;3.07;;;2.87;;
6985;SDS011;3533;51.246;6.850;2022-12-18T02:59:16;2.97;;;2.80;;
6985;SDS011;3533;51.246;6.850;2022-12-18T03:04:46;3.00;;;2.80;;
6985;SDS011;3533;51.246;6.850;2022-12-18T03:07:45;3.43;;;3.23;;
6985;SDS011;3533;51.246;6.850;2022-12-18T03:10:17;3.07;;;2.87;;
6985;SDS011;3533;51.246;6.850;2022-12-18T03:12:51;3.33;;;3.13;;
6985;SDS011;3533;51.246;6.850;2022-12-18T03:15:24;3.27;;;3.07;;
6985;SDS011;3533;51.246;6.850;2022-12-18T03:17:59;3.23;;;3.03;;
6985;SDS011;3533;51.246;6.850;2022-12-18T03:20:34;2.97;;;2.83;;
6985;SDS011;3533;51.246;6.850;2022-12-18T03:23:08;2.90;;;2.70;;
6985;SDS011;3533;51.246;6.850;2022-12-18T03:25:39;3.50;;;3.30;;
6985;SDS011;3533;51.246;6.850;2022-12-18T03:28:07;3.30;;;3.10;;
6985;SDS011;3533;51.246;6.850;2022-12-18T03:30:37;3.30;;;3.00;;
6985;SDS011;3533;51.246;6.850;2022-12-18T03:33:07;3.50;;;3.30;;
6985;SDS011;3533;51.246;6.850;2022-12-18T03:35:50;3.33;;;3.13;;
6985;SDS011;3533;51.246;6.850;2022-12-18T03:38:16;3.07;;;2.87;;
6985;SDS011;3533;51.246;6.850;2022-12-18T03:40:48;2.93;;;2.73;;
6985;SDS011;3533;51.246;6.850;2022-12-18T03:43:37;2.67;;;2.47;;
6985;SDS011;3533;51.246;6.850;2022-12-18T03:46:29;3.00;;;2.80;;
6985;SDS011;3533;51.246;6.850;2022-12-18T03:49:11;2.80;;;2.60;;
6985;SDS011;3533;51.246;6.850;2022-12-18T03:51:52;2.90;;;2.70;;
6985;SDS011;3533;51.246;6.850;2022-12-18T03:54:29;3.40;;;3.20;;
6985;SDS011;3533;51.246;6.850;2022-12-18T03:56:58;2.77;;;2.57;;
6985;SDS011;3533;51.246;6.850;2022-12-18T03:59:28;2.60;;;2.50;;
6985;SDS011;3533;51.246;6.850;2022-12-18T04:01:55;2.87;;;2.67;;
6985;SDS011;3533;51.246;6.850;2022-12-18T04:04:23;2.80;;;2.70;;
6985;SDS011;3533;51.246;6.850;2022-12-18T04:06:50;3.60;;;3.30;;
6985;SDS011;3533;51.246;6.850;2022-12-18T04:09:17;2.80;;;2.60;;
6985;SDS011;3533;51.246;6.850;2022-12-18T04:11:43;2.73;;;2.53;;
6985;SDS011;3533;51.246;6.850;2022-12-18T04:14:09;3.00;;;2.80;;
6985;SDS011;3533;51.246;6.850;2022-12-18T04:16:35;3.57;;;3.37;;
6985;SDS011;3533;51.246;6.850;2022-12-18T04:19:00;2.80;;;2.60;;
6985;SDS011;3533;51.246;6.850;2022-12-18T04:21:26;2.93;;;2.73;;
6985;SDS011;3533;51.246;6.850;2022-12-18T04:23:51;3.17;;;2.97;;
6985;SDS011;3533;51.246;6.850;2022-12-18T04:26:17;3.47;;;3.27;;
6985;SDS011;3533;51.246;6.850;2022-12-18T04:28:42;3.33;;;3.13;;
6985;SDS011;3533;51.246;6.850;2022-12-18T04:31:08;3.30;;;3.10;;
6985;SDS011;3533;51.246;6.850;2022-12-18T04:33:34;3.43;;;3.17;;
6985;SDS011;3533;51.246;6.850;2022-12-18T04:35:59;2.80;;;2.60;;
6985;SDS011;3533;51.246;6.850;2022-12-18T04:38:25;2.43;;;2.30;;
6985;SDS011;3533;51.246;6.850;2022-12-18T04:40:50;2.90;;;2.70;;
6985;SDS011;3533;51.246;6.850;2022-12-18T04:43:16;2.73;;;2.53;;
6985;SDS011;3533;51.246;6.850;2022-12-18T04:45:41;2.40;;;2.30;;
6985;SDS011;3533;51.246;6.850;2022-12-18T04:48:07;2.53;;;2.40;;
6985;SDS011;3533;51.246;6.850;2022-12-18T04:50:33;2.67;;;2.47;;
6985;SDS011;3533;51.246;6.850;2022-12-18T04:52:58;2.87;;;2.67;;
6985;SDS011;3533;51.246;6.850;2022-12-18T04:55:24;2.97;;;2.77;;
6985;SDS011;3533;51.246;6.850;2022-12-18T04:57:50;2.53;;;2.43;;
6985;SDS011;3533;51.246;6.850;2022-12-18T05:00:15;2.93;;;2.73;;
6985;SDS011;3533;51.246;6.850;2022-12-18T05:02:41;3.10;;;2.90;;
6985;SDS011;3533;51.246;6.850;2022-12-18T05:05:07;2.90;;;2.70;;
6985;SDS011;3533;51.246;6.850;2022-12-18T05:07:32;2.60;;;2.47;;
6985;SDS011;3533;51.246;6.850;2022-12-18T05:09:58;2.40;;;2.30;;
6985;SDS011;3533;51.246;6.850;2022-12-18T05:12:24;2.60;;;2.50;;
6985;SDS011;3533;51.246;6.850;2022-12-18T05:14:50;2.70;;;2.50;;
6985;SDS011;3533;51.246;6.850;2022-12-18T05:17:15;3.20;;;3.00;;
6985;SDS011;3533;51.246;6.850;2022-12-18T05:19:41;2.80;;;2.60;;
6985;SDS011;3533;51.246;6.850;2022-12-18T05:22:06;2.80;;;2.70;;
6985;SDS011;3533;51.246;6.850;2022-12-18T05:24:32;2.87;;;2.73;;
6985;SDS011;3533;51.246;6.850;2022-12-18T05:26:58;3.10;;;2.90;;
6985;SDS011;3533;51.246;6.850;2022-12-18T05:29:24;2.97;;;2.77;;
6985;SDS011;3533;51.246;6.850;2022-12-18T05:31:49;3.10;;;2.90;;
6985;SDS011;3533;51.246;6.850;2022-12-18T05:34:15;2.63;;;2.43;;
6985;SDS011;3533;51.246;6.850;2022-12-18T05:36:41;2.70;;;2.60;;
6985;SDS011;3533;51.246;6.850;2022-12-18T05:39:06;2.90;;;2.70;;
6985;SDS011;3533;51.246;6.850;2022-12-18T05:41:32;2.50;;;2.40;;
6985;SDS011;3533;51.246;6.850;2022-12-18T05:43:58;2.80;;;2.60;;
6985;SDS011;3533;51.246;6.850;2022-12-18T05:46:24;2.63;;;2.50;;
6985;SDS011;3533;51.246;6.850;2022-12-18T05:48:49;2.53;;;2.43;;
6985;SDS011;3533;51.246;6.850;2022-12-18T05:51:16;2.40;;;2.30;;
6985;SDS011;3533;51.246;6.850;2022-12-18T05:53:43;2.73;;;2.57;;
6985;SDS011;3533;51.246;6.850;2022-12-18T05:56:10;2.73;;;2.53;;
6985;SDS011;3533;51.246;6.850;2022-12-18T05:58:37;2.80;;;2.60;;
6985;SDS011;3533;51.246;6.850;2022-12-18T06:01:08;3.03;;;2.83;;
6985;SDS011;3533;51.246;6.850;2022-12-18T06:03:39;3.10;;;2.90;;
6985;SDS011;3533;51.246;6.850;2022-12-18T06:06:15;2.67;;;2.47;;
6985;SDS011;3533;51.246;6.850;2022-12-18T06:08:42;2.43;;;2.33;;
6985;SDS011;3533;51.246;6.850;2022-12-18T06:11:08;2.43;;;2.33;;
6985;SDS011;3533;51.246;6.850;2022-12-18T06:13:33;3.07;;;2.87;;
6985;SDS011;3533;51.246;6.850;2022-12-18T06:16:01;2.97;;;2.77;;
6985;SDS011;3533;51.246;6.850;2022-12-18T06:18:28;2.97;;;2.77;;
6985;SDS011;3533;51.246;6.850;2022-12-18T06:20:54;3.00;;;2.80;;
6985;SDS011;3533;51.246;6.850;2022-12-18T06:23:21;2.83;;;2.63;;
6985;SDS011;3533;51.246;6.850;2022-12-18T06:25:46;2.97;;;2.77;;
6985;SDS011;3533;51.246;6.850;2022-12-18T06:28:12;3.43;;;3.23;;
6985;SDS011;3533;51.246;6.850;2022-12-18T06:30:37;2.30;;;2.13;;
6985;SDS011;3533;51.246;6.850;2022-12-18T06:33:03;2.73;;;2.53;;
6985;SDS011;3533;51.246;6.850;2022-12-18T06:35:28;3.10;;;2.90;;
6985;SDS011;3533;51.246;6.850;2022-12-18T06:37:54;2.43;;;2.33;;
6985;SDS011;3533;51.246;6.850;2022-12-18T06:40:19;3.13;;;2.93;;
6985;SDS011;3533;51.246;6.850;2022-12-18T06:42:45;3.00;;;2.80;;
6985;SDS011;3533;51.246;6.850;2022-12-18T06:45:11;3.23;;;3.03;;
6985;SDS011;3533;51.246;6.850;2022-12-18T06:47:36;2.90;;;2.70;;
6985;SDS011;3533;51.246;6.850;2022-12-18T06:50:02;2.73;;;2.53;;
6985;SDS011;3533;51.246;6.850;2022-12-18T06:52:28;2.60;;;2.50;;
6985;SDS011;3533;51.246;6.850;2022-12-18T06:54:53;2.70;;;2.50;;
6985;SDS011;3533;51.246;6.850;2022-12-18T06:57:19;2.57;;;2.37;;
6985;SDS011;3533;51.246;6.850;2022-12-18T06:59:44;3.77;;;3.47;;
6985;SDS011;3533;51.246;6.850;2022-12-18T07:02:11;2.20;;;2.10;;
6985;SDS011;3533;51.246;6.850;2022-12-18T07:04:37;2.70;;;2.50;;
6985;SDS011;3533;51.246;6.850;2022-12-18T07:07:03;3.03;;;2.83;;
6985;SDS011;3533;51.246;6.850;2022-12-18T07:09:28;2.50;;;2.30;;
6985;SDS011;3533;51.246;6.850;2022-12-18T07:11:53;2.70;;;2.60;;
6985;SDS011;3533;51.246;6.850;2022-12-18T07:14:19;2.93;;;2.63;;
6985;SDS011;3533;51.246;6.850;2022-12-18T07:16:45;2.43;;;2.33;;
6985;SDS011;3533;51.246;6.850;2022-12-18T07:19:10;2.57;;;2.37;;
6985;SDS011;3533;51.246;6.850;2022-12-18T07:21:36;3.27;;;3.07;;
6985;SDS011;3533;51.246;6.850;2022-12-18T07:24:01;2.33;;;2.23;;
6985;SDS011;3533;51.246;6.850;2022-12-18T07:26:27;2.83;;;2.63;;
6985;SDS011;3533;51.246;6.850;2022-12-18T07:28:54;2.60;;;2.40;;
6985;SDS011;3533;51.246;6.850;2022-12-18T07:31:21;2.90;;;2.70;;
6985;SDS011;3533;51.246;6.850;2022-12-18T07:33:47;2.30;;;2.20;;
6985;SDS011;3533;51.246;6.850;2022-12-18T07:36:12;3.20;;;3.00;;
6985;SDS011;3533;51.246;6.850;2022-12-18T07:38:38;2.70;;;2.50;;
6985;SDS011;3533;51.246;6.850;2022-12-18T07:41:07;3.00;;;2.80;;
6985;SDS011;3533;51.246;6.850;2022-12-18T07:43:35;2.87;;;2.67;;
6985;SDS011;3533;51.246;6.850;2022-12-18T07:46:01;3.93;;;2.60;;
6985;SDS011;3533;51.246;6.850;2022-12-18T07:48:27;2.53;;;2.43;;
6985;SDS011;3533;51.246;6.850;2022-12-18T07:50:57;2.63;;;2.43;;
6985;SDS011;3533;51.246;6.850;2022-12-18T07:53:24;2.50;;;2.30;;
6985;SDS011;3533;51.246;6.850;2022-12-18T07:55:54;2.80;;;2.60;;
6985;SDS011;3533;51.246;6.850;2022-12-18T07:58:21;2.57;;;2.37;;
6985;SDS011;3533;51.246;6.850;2022-12-18T08:00:47;2.80;;;2.60;;
6985;SDS011;3533;51.246;6.850;2022-12-18T08:03:12;2.77;;;2.57;;
6985;SDS011;3533;51.246;6.850;2022-12-18T08:05:38;2.97;;;2.77;;
6985;SDS011;3533;51.246;6.850;2022-12-18T08:08:03;2.60;;;2.40;;
6985;SDS011;3533;51.246;6.850;2022-12-18T08:10:29;3.10;;;2.90;;
6985;SDS011;3533;51.246;6.850;2022-12-18T08:12:54;3.00;;;2.27;;
6985;SDS011;3533;51.246;6.850;2022-12-18T08:15:20;2.80;;;2.60;;
6985;SDS011;3533;51.246;6.850;2022-12-18T08:17:45;2.50;;;2.23;;
6985;SDS011;3533;51.246;6.850;2022-12-18T08:20:11;2.90;;;2.70;;
6985;SDS011;3533;51.246;6.850;2022-12-18T08:22:38;3.20;;;3.00;;
6985;SDS011;3533;51.246;6.850;2022-12-18T08:25:04;2.93;;;2.70;;
6985;SDS011;3533;51.246;6.850;2022-12-18T08:27:30;2.53;;;2.40;;
6985;SDS011;3533;51.246;6.850;2022-12-18T08:29:56;2.70;;;2.50;;
6985;SDS011;3533;51.246;6.850;2022-12-18T08:32:22;2.87;;;2.67;;
6985;SDS011;3533;51.246;6.850;2022-12-18T08:34:49;2.50;;;2.30;;
6985;SDS011;3533;51.246;6.850;2022-12-18T08:37:14;2.93;;;2.73;;
6985;SDS011;3533;51.246;6.850;2022-12-18T08:39:40;2.53;;;2.33;;
6985;SDS011;3533;51.246;6.850;2022-12-18T08:42:05;2.43;;;2.30;;
6985;SDS011;3533;51.246;6.850;2022-12-18T08:44:50;3.13;;;2.60;;
6985;SDS011;3533;51.246;6.850;2022-12-18T08:47:15;2.73;;;2.53;;
6985;SDS011;3533;51.246;6.850;2022-12-18T08:49:41;2.47;;;2.37;;
6985;SDS011;3533;51.246;6.850;2022-12-18T08:52:06;2.40;;;2.30;;
6985;SDS011;3533;51.246;6.850;2022-12-18T08:54:32;2.63;;;2.50;;
6985;SDS011;3533;51.246;6.850;2022-12-18T08:56:57;2.80;;;2.60;;
6985;SDS011;3533;51.246;6.850;2022-12-18T08:59:23;3.13;;;2.90;;
6985;SDS011;3533;51.246;6.850;2022-12-18T09:01:49;2.43;;;2.33;;
6985;SDS011;3533;51.246;6.850;2022-12-18T09:04:15;2.70;;;2.50;;
6985;SDS011;3533;51.246;6.850;2022-12-18T09:06:40;2.60;;;2.40;;
6985;SDS011;3533;51.246;6.850;2022-12-18T09:09:06;2.80;;;2.57;;
6985;SDS011;3533;51.246;6.850;2022-12-18T09:11:32;2.37;;;2.17;;
6985;SDS011;3533;51.246;6.850;2022-12-18T09:13:58;2.97;;;2.77;;
6985;SDS011;3533;51.246;6.850;2022-12-18T09:16:25;2.43;;;2.23;;
6985;SDS011;3533;51.246;6.850;2022-12-18T09:18:53;2.57;;;2.47;;
6985;SDS011;3533;51.246;6.850;2022-12-18T09:21:24;2.97;;;2.77;;
6985;SDS011;3533;51.246;6.850;2022-12-18T09:23:52;3.00;;;2.80;;
6985;SDS011;3533;51.246;6.850;2022-12-18T09:26:19;2.60;;;2.50;;
6985;SDS011;3533;51.246;6.850;2022-12-18T09:28:45;3.40;;;2.40;;
6985;SDS011;3533;51.246;6.850;2022-12-18T09:31:11;3.63;;;2.43;;
6985;SDS011;3533;51.246;6.850;2022-12-18T09:33:41;2.67;;;2.57;;
6985;SDS011;3533;51.246;6.850;2022-12-18T09:36:07;3.10;;;2.90;;
6985;SDS011;3533;51.246;6.850;2022-12-18T09:38:34;2.70;;;2.50;;
6985;SDS011;3533;51.246;6.850;2022-12-18T09:43:51;3.23;;;2.97;;
6985;SDS011;3533;51.246;6.850;2022-12-18T09:46:26;3.10;;;2.90;;
6985;SDS011;3533;51.246;6.850;2022-12-18T09:48:57;3.63;;;3.43;;
6985;SDS011;3533;51.246;6.850;2022-12-18T09:51:27;6.57;;;3.27;;
6985;SDS011;3533;51.246;6.850;2022-12-18T09:53:58;2.80;;;2.60;;
6985;SDS011;3533;51.246;6.850;2022-12-18T09:56:28;4.13;;;2.60;;
6985;SDS011;3533;51.246;6.850;2022-12-18T09:59:03;3.83;;;3.13;;
6985;SDS011;3533;51.246;6.850;2022-12-18T10:01:29;4.30;;;2.60;;
6985;SDS011;3533;51.246;6.850;2022-12-18T10:03:56;3.17;;;2.87;;
6985;SDS011;3533;51.246;6.850;2022-12-18T10:06:39;4.20;;;3.00;;
6985;SDS011;3533;51.246;6.850;2022-12-18T10:14:47;2.70;;;2.50;;
6985;SDS011;3533;51.246;6.850;2022-12-18T10:17:26;3.20;;;3.00;;
6985;SDS011;3533;51.246;6.850;2022-12-18T10:23:00;3.87;;;2.97;;
6985;SDS011;3533;51.246;6.850;2022-12-18T10:25:53;3.33;;;3.07;;
6985;SDS011;3533;51.246;6.850;2022-12-18T10:28:33;2.87;;;2.67;;
6985;SDS011;3533;51.246;6.850;2022-12-18T10:31:00;2.77;;;2.57;;
6985;SDS011;3533;51.246;6.850;2022-12-18T10:33:30;5.20;;;2.80;;
6985;SDS011;3533;51.246;6.850;2022-12-18T10:35:57;2.93;;;2.73;;
6985;SDS011;3533;51.246;6.850;2022-12-18T10:43:43;3.33;;;3.13;;
6985;SDS011;3533;51.246;6.850;2022-12-18T10:48:36;3.00;;;2.80;;
6985;SDS011;3533;51.246;6.850;2022-12-18T10:51:23;2.93;;;2.60;;
6985;SDS011;3533;51.246;6.850;2022-12-18T10:54:02;2.60;;;2.50;;
6985;SDS011;3533;51.246;6.850;2022-12-18T10:56:39;2.97;;;2.77;;
6985;SDS011;3533;51.246;6.850;2022-12-18T10:59:06;2.80;;;2.60;;
6985;SDS011;3533;51.246;6.850;2022-12-18T11:01:51;2.83;;;2.63;;
6985;SDS011;3533;51.246;6.850;2022-12-18T11:04:19;3.00;;;2.80;;
6985;SDS011;3533;51.246;6.850;2022-12-18T11:09:28;2.67;;;2.57;;
6985;SDS011;3533;51.246;6.850;2022-12-18T11:11:57;2.80;;;2.60;;
6985;SDS011;3533;51.246;6.850;2022-12-18T11:14:32;4.03;;;3.27;;
6985;SDS011;3533;51.246;6.850;2022-12-18T11:17:18;2.97;;;2.67;;
6985;SDS011;3533;51.246;6.850;2022-12-18T11:19:45;3.13;;;2.93;;
6985;SDS011;3533;51.246;6.850;2022-12-18T11:22:20;3.03;;;2.83;;
6985;SDS011;3533;51.246;6.850;2022-12-18T11:25:21;2.80;;;2.60;;
6985;SDS011;3533;51.246;6.850;2022-12-18T11:27:39;3.47;;;3.17;;
6985;SDS011;3533;51.246;6.850;2022-12-18T11:30:09;3.30;;;3.00;;
6985;SDS011;3533;51.246;6.850;2022-12-18T11:32:44;3.00;;;2.80;;
6985;SDS011;3533;51.246;6.850;2022-12-18T11:35:19;3.47;;;2.63;;
6985;SDS011;3533;51.246;6.850;2022-12-18T11:38:12;2.70;;;2.50;;
6985;SDS011;3533;51.246;6.850;2022-12-18T11:44:08;3.13;;;2.83;;
6985;SDS011;3533;51.246;6.850;2022-12-18T11:46:43;12.43;;;2.97;;
6985;SDS011;3533;51.246;6.850;2022-12-18T11:49:19;3.10;;;2.50;;
6985;SDS011;3533;51.246;6.850;2022-12-18T11:54:43;3.03;;;2.83;;
6985;SDS011;3533;51.246;6.850;2022-12-18T12:03:06;2.93;;;2.60;;
6985;SDS011;3533;51.246;6.850;2022-12-18T12:11:26;5.03;;;4.57;;
6985;SDS011;3533;51.246;6.850;2022-12-18T12:30:21;3.07;;;2.70;;
6985;SDS011;3533;51.246;6.850;2022-12-18T12:36:08;3.57;;;3.27;;
6985;SDS011;3533;51.246;6.850;2022-12-18T12:38:44;3.77;;;3.40;;
6985;SDS011;3533;51.246;6.850;2022-12-18T12:41:16;3.37;;;2.87;;
6985;SDS011;3533;51.246;6.850;2022-12-18T12:44:04;3.67;;;3.30;;
6985;SDS011;3533;51.246;6.850;2022-12-18T12:46:34;4.47;;;3.10;;
6985;SDS011;3533;51.246;6.850;2022-12-18T12:49:04;4.07;;;3.87;;
6985;SDS011;3533;51.246;6.850;2022-12-18T12:51:45;3.40;;;3.20;;
6985;SDS011;3533;51.246;6.850;2022-12-18T12:54:17;4.97;;;3.80;;
6985;SDS011;3533;51.246;6.850;2022-12-18T12:59:31;5.40;;;3.50;;
6985;SDS011;3533;51.246;6.850;2022-12-18T13:05:53;3.90;;;3.50;;
6985;SDS011;3533;51.246;6.850;2022-12-18T13:08:23;3.50;;;3.30;;
6985;SDS011;3533;51.246;6.850;2022-12-18T13:10:54;5.33;;;3.83;;
6985;SDS011;3533;51.246;6.850;2022-12-18T13:13:53;3.13;;;2.93;;
6985;SDS011;3533;51.246;6.850;2022-12-18T13:16:21;3.77;;;3.07;;
6985;SDS011;3533;51.246;6.850;2022-12-18T13:18:52;3.77;;;3.47;;
6985;SDS011;3533;51.246;6.850;2022-12-18T13:21:23;3.70;;;3.40;;
6985;SDS011;3533;51.246;6.850;2022-12-18T13:23:49;4.10;;;3.77;;
6985;SDS011;3533;51.246;6.850;2022-12-18T13:36:48;4.20;;;3.60;;
6985;SDS011;3533;51.246;6.850;2022-12-18T13:41:43;5.80;;;3.87;;
6985;SDS011;3533;51.246;6.850;2022-12-18T13:44:12;3.67;;;3.40;;
6985;SDS011;3533;51.246;6.850;2022-12-18T13:46:55;4.20;;;3.80;;
6985;SDS011;3533;51.246;6.850;2022-12-18T13:49:26;4.23;;;3.70;;
6985;SDS011;3533;51.246;6.850;2022-12-18T13:51:56;3.60;;;3.40;;
6985;SDS011;3533;51.246;6.850;2022-12-18T13:57:00;4.10;;;3.80;;
6985;SDS011;3533;51.246;6.850;2022-12-18T13:59:37;4.20;;;3.83;;
6985;SDS011;3533;51.246;6.850;2022-12-18T14:02:16;3.90;;;3.60;;
6985;SDS011;3533;51.246;6.850;2022-12-18T14:04:45;3.70;;;3.50;;
6985;SDS011;3533;51.246;6.850;2022-12-18T14:07:16;3.63;;;3.30;;
6985;SDS011;3533;51.246;6.850;2022-12-18T14:10:00;4.03;;;3.73;;
6985;SDS011;3533;51.246;6.850;2022-12-18T14:12:30;4.53;;;4.10;;
6985;SDS011;3533;51.246;6.850;2022-12-18T14:18:01;3.20;;;3.00;;
6985;SDS011;3533;51.246;6.850;2022-12-18T14:20:39;4.40;;;4.00;;
6985;SDS011;3533;51.246;6.850;2022-12-18T14:26:19;3.70;;;3.40;;
6985;SDS011;3533;51.246;6.850;2022-12-18T14:28:54;3.53;;;3.33;;
6985;SDS011;3533;51.246;6.850;2022-12-18T14:31:26;3.70;;;3.40;;
6985;SDS011;3533;51.246;6.850;2022-12-18T14:33:53;4.40;;;4.00;;
6985;SDS011;3533;51.246;6.850;2022-12-18T14:36:21;3.83;;;3.63;;
6985;SDS011;3533;51.246;6.850;2022-12-18T14:38:52;5.30;;;3.77;;
6985;SDS011;3533;51.246;6.850;2022-12-18T14:41:21;5.00;;;4.03;;
6985;SDS011;3533;51.246;6.850;2022-12-18T14:43:49;4.20;;;3.90;;
6985;SDS011;3533;51.246;6.850;2022-12-18T14:49:00;4.50;;;4.20;;
6985;SDS011;3533;51.246;6.850;2022-12-18T14:51:33;4.10;;;3.53;;
6985;SDS011;3533;51.246;6.850;2022-12-18T14:54:00;3.67;;;3.37;;
6985;SDS011;3533;51.246;6.850;2022-12-18T14:56:31;4.33;;;3.93;;
6985;SDS011;3533;51.246;6.850;2022-12-18T14:58:59;4.30;;;3.97;;
6985;SDS011;3533;51.246;6.850;2022-12-18T15:01:31;4.80;;;4.13;;
6985;SDS011;3533;51.246;6.850;2022-12-18T15:04:00;3.63;;;3.43;;
6985;SDS011;3533;51.246;6.850;2022-12-18T15:06:28;3.60;;;3.40;;
6985;SDS011;3533;51.246;6.850;2022-12-18T15:08:56;4.10;;;3.80;;
6985;SDS011;3533;51.246;6.850;2022-12-18T15:14:23;7.90;;;4.07;;
6985;SDS011;3533;51.246;6.850;2022-12-18T15:16:58;4.17;;;3.80;;
6985;SDS011;3533;51.246;6.850;2022-12-18T15:19:41;3.83;;;3.53;;
6985;SDS011;3533;51.246;6.850;2022-12-18T15:22:27;4.03;;;3.67;;
6985;SDS011;3533;51.246;6.850;2022-12-18T15:24:55;3.77;;;3.57;;
6985;SDS011;3533;51.246;6.850;2022-12-18T15:32:34;3.80;;;3.60;;
6985;SDS011;3533;51.246;6.850;2022-12-18T15:35:03;4.13;;;3.87;;
6985;SDS011;3533;51.246;6.850;2022-12-18T15:37:33;4.13;;;3.83;;
6985;SDS011;3533;51.246;6.850;2022-12-18T15:39:59;3.50;;;3.30;;
6985;SDS011;3533;51.246;6.850;2022-12-18T15:42:24;3.90;;;3.60;;
6985;SDS011;3533;51.246;6.850;2022-12-18T15:45:12;4.90;;;3.87;;
6985;SDS011;3533;51.246;6.850;2022-12-18T15:47:38;4.20;;;3.90;;
6985;SDS011;3533;51.246;6.850;2022-12-18T15:50:04;3.80;;;3.50;;
6985;SDS011;3533;51.246;6.850;2022-12-18T15:52:31;3.90;;;3.60;;
6985;SDS011;3533;51.246;6.850;2022-12-18T15:55:05;3.63;;;3.43;;
6985;SDS011;3533;51.246;6.850;2022-12-18T15:58:00;3.87;;;3.57;;
6985;SDS011;3533;51.246;6.850;2022-12-18T16:00:26;3.93;;;3.63;;
6985;SDS011;3533;51.246;6.850;2022-12-18T16:02:52;3.77;;;3.57;;
6985;SDS011;3533;51.246;6.850;2022-12-18T16:05:18;4.03;;;3.73;;
6985;SDS011;3533;51.246;6.850;2022-12-18T16:07:45;4.80;;;4.40;;
6985;SDS011;3533;51.246;6.850;2022-12-18T16:10:11;3.57;;;3.37;;
6985;SDS011;3533;51.246;6.850;2022-12-18T16:12:37;4.17;;;3.87;;
6985;SDS011;3533;51.246;6.850;2022-12-18T16:15:04;4.23;;;3.83;;
6985;SDS011;3533;51.246;6.850;2022-12-18T16:17:30;3.47;;;3.27;;
6985;SDS011;3533;51.246;6.850;2022-12-18T16:19:56;3.80;;;3.60;;
6985;SDS011;3533;51.246;6.850;2022-12-18T16:22:23;4.20;;;3.90;;
6985;SDS011;3533;51.246;6.850;2022-12-18T16:24:51;3.47;;;3.27;;
6985;SDS011;3533;51.246;6.850;2022-12-18T16:27:18;4.30;;;4.00;;
6985;SDS011;3533;51.246;6.850;2022-12-18T16:29:44;4.67;;;4.40;;
6985;SDS011;3533;51.246;6.850;2022-12-18T16:32:12;4.50;;;4.20;;
6985;SDS011;3533;51.246;6.850;2022-12-18T16:34:39;4.20;;;3.70;;
6985;SDS011;3533;51.246;6.850;2022-12-18T16:37:07;4.97;;;4.13;;
6985;SDS011;3533;51.246;6.850;2022-12-18T16:39:34;4.20;;;3.63;;
6985;SDS011;3533;51.246;6.850;2022-12-18T16:42:04;6.43;;;4.43;;
6985;SDS011;3533;51.246;6.850;2022-12-18T16:44:42;4.27;;;3.97;;
6985;SDS011;3533;51.246;6.850;2022-12-18T16:47:08;4.20;;;3.80;;
6985;SDS011;3533;51.246;6.850;2022-12-18T16:49:34;3.90;;;3.70;;
6985;SDS011;3533;51.246;6.850;2022-12-18T16:52:00;4.57;;;4.27;;
6985;SDS011;3533;51.246;6.850;2022-12-18T16:54:25;3.40;;;3.20;;
6985;SDS011;3533;51.246;6.850;2022-12-18T16:56:54;4.07;;;3.67;;
6985;SDS011;3533;51.246;6.850;2022-12-18T16:59:19;3.67;;;3.40;;
6985;SDS011;3533;51.246;6.850;2022-12-18T17:01:45;3.87;;;3.57;;
6985;SDS011;3533;51.246;6.850;2022-12-18T17:04:11;4.60;;;4.20;;
6985;SDS011;3533;51.246;6.850;2022-12-18T17:06:41;5.23;;;3.53;;
6985;SDS011;3533;51.246;6.850;2022-12-18T17:09:12;5.70;;;3.83;;
6985;SDS011;3533;51.246;6.850;2022-12-18T17:11:39;4.80;;;4.50;;
6985;SDS011;3533;51.246;6.850;2022-12-18T17:14:08;5.53;;;4.27;;
6985;SDS011;3533;51.246;6.850;2022-12-18T17:16:37;3.80;;;3.60;;
6985;SDS011;3533;51.246;6.850;2022-12-18T17:19:02;4.57;;;4.17;;